Terminal Aerodrome Forecast
Issued by NWS

Home | Current Version | Previous Version | Graphics & Text | Print | Product List | Glossary On
Versions: 1 2 3 4 5 6 7 8 9 10 11 12 13 14 15 16 17 18 19
000
FTUS43 KICT 270801 AAA
TAFSLN
TAF AMD
KSLN 270801Z 2708/2806 35008KT P6SM VCSH OVC008
      TEMPO 2708/2710 3SM -RA BR OVC005
     FM271000 36007KT 5SM BR SCT003 OVC005
     FM271400 35008KT 6SM BR OVC008
     FM271600 36008KT P6SM OVC015
     FM272000 01006KT P6SM SCT025=

USA.gov is the U.S. government's official web portal to all federal, state and local government web resources and services.